Private Wetterstation Grnau im Almtal
www.gruenau.tv

Wetterdaten: aktuell Dienstag, 20.08.2019 13:45
Datum Zeit Temperatur Temp. min Temp. max Luftfeuchte Luftdruck Regen Wind Richtung Richtung Sonne ET UV Solar Taupunkt Windchill Windben
20.08.2019 13:45 23,9 C 23,9 C 24,1 C 73 % 1017,2 hPa 0,0 l/m 11,4 km/h (2 Bft) N 7 45 min 0,432 mm 2,7 UV-I 246 W/m 18,8 C 22,6 C 24,1 km/h (4 Bft)
20.08.2019 12:45 24,8 C 24,6 C 24,8 C 73 % 1017,2 hPa 0,0 l/m 12,1 km/h (2 Bft) NW 312 30 min 0,381 mm 7,7 UV-I 991 W/m 19,6 C 23,5 C 19,3 km/h (3 Bft)
20.08.2019 11:45 23,9 C 23,9 C 24,1 C 69 % 1017,5 hPa 0,0 l/m 6,9 km/h (2 Bft) N 5 55 min 0,356 mm 4,3 UV-I 243 W/m 17,9 C 23,8 C 12,9 km/h (3 Bft)
20.08.2019 10:45 22,2 C 21,9 C 22,2 C 76 % 1017,9 hPa 0,0 l/m 1,5 km/h (1 Bft) N 353 60 min 0,001 mm 5,1 UV-I 751 W/m 17,8 C 22,2 C 6,4 km/h (2 Bft)
20.08.2019 09:45 20,0 C 19,9 C 20,0 C 82 % 1018,1 hPa 0,0 l/m 5,7 km/h (1 Bft) N-NW 344 55 min 0,203 mm 3,0 UV-I 545 W/m 16,8 C 20,0 C 9,7 km/h (2 Bft)
20.08.2019 08:45 18,0 C 17,9 C 18,1 C 83 % 1018,5 hPa 0,0 l/m 4,3 km/h (1 Bft) SO 137 60 min 0,051 mm 1,5 UV-I 420 W/m 15,1 C 18,0 C 8,0 km/h (2 Bft)
20.08.2019 07:45 16,1 C 16,0 C 16,1 C 82 % 1019,4 hPa 0,0 l/m 0,2 km/h (0 Bft) S 184 5 min 0,025 mm 0,0 UV-I 167 W/m 13,0 C 16,1 C 3,2 km/h (1 Bft)
20.08.2019 06:46 15,8 C 15,8 C 15,8 C 82 % 1019,4 hPa 0,0 l/m 2,5 km/h (1 Bft) O-SO 116 0 min 0,000 mm 0,0 UV-I 37 W/m 12,7 C 15,8 C 6,4 km/h (2 Bft)
20.08.2019 05:45 15,7 C 15,6 C 15,7 C 82 % 1019,3 hPa 0,0 l/m 1,7 km/h (1 Bft) SO 137 0 min 0,000 mm 0,0 UV-I 0 W/m 12,6 C 15,7 C 3,2 km/h (1 Bft)
20.08.2019 04:45 15,7 C 15,6 C 15,7 C 82 % 1018,7 hPa 0,0 l/m 3,6 km/h (1 Bft) SO 125 0 min 0,000 mm 0,0 UV-I 0 W/m 12,6 C 15,7 C 6,4 km/h (2 Bft)
20.08.2019 03:45 15,8 C 15,8 C 15,9 C 83 % 1018,2 hPa 0,0 l/m 2,6 km/h (1 Bft) O-SO 114 0 min 0,000 mm 0,0 UV-I 0 W/m 12,9 C 15,8 C 4,8 km/h (1 Bft)
20.08.2019 02:40 15,9 C 15,9 C 15,9 C 83 % 1018,3 hPa 0,0 l/m 3,4 km/h (1 Bft) O-SO 105 0 min 0,000 mm 0,0 UV-I 0 W/m 13,0 C 15,9 C 6,4 km/h (2 Bft)
20.08.2019 01:40 16,1 C 16,1 C 16,1 C 83 % 1018,3 hPa 0,0 l/m 3,1 km/h (1 Bft) SO 137 0 min 0,000 mm 0,0 UV-I 0 W/m 13,2 C 16,1 C 8,0 km/h (2 Bft)
20.08.2019 00:40 16,0 C 16,0 C 16,1 C 83 % 1018,5 hPa 0,0 l/m 4,2 km/h (1 Bft) O-SO 102 0 min 0,000 mm 0,0 UV-I 0 W/m 13,1 C 16,0 C 8,0 km/h (2 Bft)
19.08.2019 23:40 16,4 C 16,4 C 16,4 C 83 % 1018,5 hPa 0,0 l/m 2,5 km/h (1 Bft) O 98 0 min 0,000 mm 0,0 UV-I 0 W/m 13,5 C 16,4 C 6,4 km/h (2 Bft)
19.08.2019 22:40 16,9 C 16,9 C 16,9 C 83 % 1018,2 hPa 0,0 l/m 2,3 km/h (1 Bft) S-SO 147 0 min 0,000 mm 0,0 UV-I 0 W/m 14,0 C 16,9 C 6,4 km/h (2 Bft)
19.08.2019 21:40 17,8 C 17,8 C 17,8 C 83 % 1018,0 hPa 0,0 l/m 1,5 km/h (1 Bft) SO 137 0 min 0,000 mm 0,0 UV-I 0 W/m 14,9 C 17,8 C 4,8 km/h (1 Bft)
19.08.2019 20:40 18,7 C 18,7 C 18,8 C 83 % 1017,3 hPa 0,0 l/m 3,6 km/h (1 Bft) SO 142 5 min 0,025 mm 0,0 UV-I 0 W/m 15,8 C 18,7 C 8,0 km/h (2 Bft)
19.08.2019 19:40 19,6 C 19,6 C 19,7 C 83 % 1016,9 hPa 0,0 l/m 0,6 km/h (0 Bft) SO 137 0 min 0,025 mm 0,0 UV-I 33 W/m 16,6 C 19,6 C 4,8 km/h (1 Bft)
19.08.2019 18:40 20,1 C 19,9 C 20,1 C 83 % 1016,6 hPa 0,0 l/m 0,0 km/h (0 Bft) N-NW 338 0 min 0,051 mm 0,0 UV-I 67 W/m 17,1 C 20,1 C 0,0 km/h (0 Bft)
19.08.2019 17:40 20,2 C 20,2 C 20,2 C 82 % 1016,5 hPa 0,2 l/m 1,4 km/h (1 Bft) SW 226 0 min 0,051 mm 0,0 UV-I 47 W/m 17,0 C 20,2 C 4,8 km/h (1 Bft)
19.08.2019 16:40 20,8 C 20,7 C 20,8 C 81 % 1016,8 hPa 0,4 l/m 0,5 km/h (0 Bft) W-SW 238 0 min 0,127 mm 0,0 UV-I 81 W/m 17,4 C 20,8 C 3,2 km/h (1 Bft)
19.08.2019 15:40 23,0 C 23,0 C 23,1 C 63 % 1016,5 hPa 0,0 l/m 10,0 km/h (2 Bft) N-NO 16 0 min 0,254 mm 0,5 UV-I 56 W/m 15,6 C 22,0 C 19,3 km/h (3 Bft)
19.08.2019 14:40 24,7 C 24,7 C 24,8 C 59 % 1015,5 hPa 0,0 l/m 8,6 km/h (2 Bft) NW 307 5 min 0,305 mm 2,9 UV-I 295 W/m 16,1 C 24,1 C 12,9 km/h (3 Bft)
19.08.2019 14:00 25,4 C 24,2 C 25,6 C 58 % 1015,5 hPa 0,0 l/m 6,4 km/h (2 Bft) N-NW 337 0 min 0,305 mm 7,7 UV-I 670 W/m 16,5 C 25,4 C 12,9 km/h (3 Bft)
_ Min-Zeit 04:45 04:45 05:10 14:05 14:05 - 18:15 - - - - - - 05:05 05:05 18:15
Minimum _ 15,6 C 15,6 C 15,6 C 56 % 1015,4 hPa - 0,0 km/h (0 Bft) - - - - - - 12,5 C 15,6 C 0,0 km/h (0 Bft)
_ Max-Zeit 14:00 14:10 14:00 21:25 06:15 15:55 13:30 - - 14:00 13:00 13:10 12:35 12:45 14:00 13:45
Maximum _ 25,6 C 25,3 C 25,6 C 84 % 1019,6 hPa 0,2 l/m 14,3 km/h
W-NW (3 Bft)
- - 5 min 0,432 mm 8,5 UV-I 1049 W/m 19,6 C 25,4 C 24,1 km/h
NW (4 Bft)
Durchschnitt _ 19,5 C 19,3 C 19,6 C 78 % 1017,6 hPa #0,6 l/m 3,9 km/h (1 Bft) SO - #5:10 h #1,728 mm 4,0 UV-I 444 W/m 15,3 C 19,4 C 8,3 km/h (2 Bft)
Rauscher Max - www.gruenau.tv